Time;durP1;ratioP1;P1;durP2;ratioP2;P2;SDS_P1;SDS_P2;PMS_P1;PMS_P2;Temp;Humidity;BMP_temperature;BMP_pressure;BME280_temperature;BME280_humidity;BME280_pressure;Samples;Min_cycle;Max_cycle;Signal;HPM_P1;HPM_P2
2022/04/29 00:00:30;;;;;;;7.73;5.67;;;;;;;12.72;66.23;95363.69;5020866;28;20183;-88
2022/04/29 00:02:56;;;;;;;8.53;6.60;;;;;;;12.50;66.07;95325.41;5000114;28;20176;-89
2022/04/29 00:05:21;;;;;;;8.23;6.23;;;;;;;12.72;65.90;95350.47;5013007;28;20948;-88
2022/04/29 00:07:47;;;;;;;8.60;6.47;;;;;;;12.47;65.75;95331.91;5013601;28;20167;-89
2022/04/29 00:10:14;;;;;;;9.03;6.00;;;;;;;12.47;65.94;95340.63;5012633;28;20671;-88
2022/04/29 00:12:41;;;;;;;6.33;5.20;;;;;;;12.70;66.31;95381.59;5012973;28;20152;-87
2022/04/29 00:15:09;;;;;;;10.07;5.77;;;;;;;12.53;66.12;95356.69;5012558;28;20207;-87
2022/04/29 00:17:34;;;;;;;8.33;6.30;;;;;;;12.63;65.82;95380.78;5002847;28;20180;-87
2022/04/29 00:20:00;;;;;;;9.87;6.43;;;;;;;12.20;65.90;95325.91;5023015;28;20176;-87
2022/04/29 00:22:25;;;;;;;8.93;5.70;;;;;;;12.44;66.41;95362.19;5002908;28;20543;-89
2022/04/29 00:24:51;;;;;;;7.70;5.63;;;;;;;12.24;65.51;95344.81;5005568;28;20572;-88
2022/04/29 00:27:17;;;;;;;7.17;5.50;;;;;;;11.99;66.55;95313.03;5016436;28;20184;-87
2022/04/29 00:29:42;;;;;;;9.37;6.50;;;;;;;12.41;66.84;95372.34;5020641;28;20185;-87
2022/04/29 00:32:08;;;;;;;9.03;5.97;;;;;;;12.47;66.73;95374.97;5021126;28;20172;-86
2022/04/29 00:34:33;;;;;;;9.33;6.23;;;;;;;12.51;66.76;95372.72;5018795;28;20706;-86
2022/04/29 00:36:59;;;;;;;8.97;6.00;;;;;;;12.53;66.61;95378.63;5016683;28;20218;-87
2022/04/29 00:39:25;;;;;;;8.70;6.37;;;;;;;12.54;66.64;95374.16;5018257;28;20283;-87
2022/04/29 00:41:51;;;;;;;8.33;6.23;;;;;;;12.53;66.57;95370.69;5017626;28;20169;-87
2022/04/29 00:44:17;;;;;;;8.53;6.17;;;;;;;12.00;66.83;95288.25;5017567;28;20230;-87
2022/04/29 00:46:44;;;;;;;9.07;6.30;;;;;;;12.54;66.86;95368.88;5020954;28;20249;-89
2022/04/29 00:49:12;;;;;;;9.97;6.20;;;;;;;12.53;66.42;95367.25;5005531;28;20187;-85
2022/04/29 00:51:39;;;;;;;9.57;6.47;;;;;;;12.37;66.33;95335.00;5005204;28;20200;-88
2022/04/29 00:54:14;;;;;;;10.00;6.30;;;;;;;12.58;66.44;95364.78;5008907;28;20191;-88
2022/04/29 00:56:42;;;;;;;11.97;5.97;;;;;;;12.58;66.41;95351.56;5031767;28;20179;-88
2022/04/29 00:59:19;;;;;;;10.80;6.50;;;;;;;12.27;66.74;95310.91;5032097;28;20222;-88
2022/04/29 01:01:46;;;;;;;8.93;5.80;;;;;;;12.30;66.70;95317.56;5032291;28;20214;-87
2022/04/29 01:04:21;;;;;;;9.70;6.73;;;;;;;12.41;66.65;95344.13;5032261;28;20187;-87
2022/04/29 01:06:47;;;;;;;11.90;6.50;;;;;;;12.52;66.87;95355.88;5031941;28;20159;-87
2022/04/29 01:09:13;;;;;;;8.77;6.20;;;;;;;12.47;66.85;95345.91;5014117;28;20220;-88
2022/04/29 01:11:39;;;;;;;9.17;6.67;;;;;;;12.32;66.52;95321.63;5032138;28;20641;-88
2022/04/29 01:14:04;;;;;;;10.43;6.93;;;;;;;12.17;66.63;95301.78;5032153;28;20290;-89
2022/04/29 01:16:30;;;;;;;11.93;6.43;;;;;;;12.12;67.09;95294.50;5031635;28;20185;-89
2022/04/29 01:18:55;;;;;;;9.93;6.60;;;;;;;12.16;67.06;95306.25;5031924;28;20251;-91
2022/04/29 01:21:21;;;;;;;10.53;6.63;;;;;;;12.30;67.46;95323.66;5014351;28;20179;-90
2022/04/29 01:23:46;;;;;;;9.97;6.17;;;;;;;12.04;67.30;95274.44;5032572;28;20153;-90
2022/04/29 01:26:15;;;;;;;9.67;6.93;;;;;;;12.20;66.99;95301.34;5014357;28;20160;-92
2022/04/29 01:28:47;;;;;;;9.57;6.70;;;;;;;12.18;67.12;95295.50;5014144;28;21098;-91
2022/04/29 01:31:14;;;;;;;8.90;6.17;;;;;;;12.29;66.54;95315.94;5014537;28;20211;-91
2022/04/29 01:33:47;;;;;;;11.30;6.97;;;;;;;12.21;66.64;95301.16;5031735;28;20207;-91
2022/04/29 01:36:13;;;;;;;9.47;6.50;;;;;;;12.19;66.42;95284.75;5011325;28;20176;-91
2022/04/29 01:38:39;;;;;;;11.60;6.47;;;;;;;12.53;66.51;95340.84;5021894;28;20672;-91
2022/04/29 01:41:05;;;;;;;8.73;5.73;;;;;;;12.53;66.50;95346.13;5002245;28;20173;-91
2022/04/29 01:43:35;;;;;;;11.20;6.73;;;;;;;12.57;66.06;95344.66;5018500;28;20211;-91
2022/04/29 01:46:02;;;;;;;9.37;6.00;;;;;;;12.54;65.99;95339.81;5015963;28;20157;-91
2022/04/29 01:48:28;;;;;;;9.07;6.50;;;;;;;12.48;66.44;95344.91;5016100;28;20183;-91
2022/04/29 01:50:53;;;;;;;9.87;7.20;;;;;;;12.44;66.49;95340.28;4998693;28;20172;-89
2022/04/29 01:53:19;;;;;;;11.27;7.27;;;;;;;12.38;66.76;95330.53;4997972;28;20197;-88
2022/04/29 01:55:46;;;;;;;9.73;6.43;;;;;;;12.52;67.14;95353.22;5015530;28;20183;-89
2022/04/29 01:58:11;;;;;;;11.10;6.83;;;;;;;12.28;67.08;95314.34;5015900;28;20243;-89
2022/04/29 02:00:36;;;;;;;10.67;7.40;;;;;;;12.31;67.02;95329.75;5015488;28;20585;-89
2022/04/29 02:03:02;;;;;;;9.30;6.03;;;;;;;12.09;66.81;95289.66;4997819;28;20177;-89
2022/04/29 02:05:28;;;;;;;9.57;6.30;;;;;;;12.25;66.62;95320.84;4997826;28;20168;-90
2022/04/29 02:07:53;;;;;;;11.07;6.77;;;;;;;12.16;66.90;95292.25;5015426;28;20160;-90
2022/04/29 02:10:20;;;;;;;11.53;6.27;;;;;;;12.19;66.75;95302.41;5018454;28;20211;-90
2022/04/29 02:12:46;;;;;;;10.13;6.50;;;;;;;12.36;66.64;95341.31;5029020;28;20164;-89
2022/04/29 02:15:12;;;;;;;10.37;7.00;;;;;;;11.93;66.44;95277.75;5020415;28;20196;-90
2022/04/29 02:17:38;;;;;;;9.10;6.80;;;;;;;12.20;66.93;95333.84;5007459;28;20665;-89
2022/04/29 02:20:04;;;;;;;11.40;7.93;;;;;;;12.00;67.41;95288.25;5028954;28;20179;-90
2022/04/29 02:22:29;;;;;;;11.37;8.20;;;;;;;12.39;67.61;95348.81;5034898;28;20168;-89
2022/04/29 02:24:55;;;;;;;11.23;7.03;;;;;;;12.30;67.46;95328.94;5017094;28;20760;-89
2022/04/29 02:27:20;;;;;;;12.33;7.37;;;;;;;12.18;67.18;95314.78;5034842;28;20170;-89
2022/04/29 02:29:46;;;;;;;10.60;6.83;;;;;;;12.20;67.59;95339.13;5017154;28;20615;-89
2022/04/29 02:32:11;;;;;;;13.23;8.17;;;;;;;12.01;67.40;95308.34;5017098;28;20182;-89
2022/04/29 02:34:38;;;;;;;12.93;7.37;;;;;;;12.19;68.14;95334.06;5034715;28;20696;-90
2022/04/29 02:37:03;;;;;;;13.07;7.37;;;;;;;12.00;67.84;95309.38;5016879;28;20188;-90
2022/04/29 02:39:29;;;;;;;13.07;8.00;;;;;;;12.05;68.02;95318.28;5034870;28;20214;-90
2022/04/29 02:41:55;;;;;;;11.03;7.67;;;;;;;12.12;67.77;95315.59;5016951;28;20555;-90
2022/04/29 02:44:20;;;;;;;12.17;7.43;;;;;;;12.24;67.90;95334.25;5016825;28;20180;-90
2022/04/29 02:49:31;;;;;;;11.10;8.10;;;;;;;12.35;68.23;95352.91;5034591;28;20977;-90
2022/04/29 02:51:56;;;;;;;15.67;9.93;;;;;;;12.19;67.92;95332.25;5034330;28;20174;-90
2022/04/29 02:54:22;;;;;;;14.47;9.13;;;;;;;12.27;68.29;95342.56;5026116;28;20188;-89
2022/04/29 02:56:50;;;;;;;13.83;8.97;;;;;;;12.16;68.36;95318.66;5038912;28;20156;-90
2022/04/29 02:59:19;;;;;;;11.73;7.80;;;;;;;11.91;68.41;95273.69;5034622;28;20206;-89
2022/04/29 03:01:45;;;;;;;11.07;7.00;;;;;;;11.99;68.34;95287.44;5016649;28;20171;-90
2022/04/29 03:04:11;;;;;;;10.00;7.70;;;;;;;12.14;68.34;95303.00;5016494;28;20164;-90
2022/04/29 03:06:38;;;;;;;12.13;7.07;;;;;;;12.50;68.40;95351.81;5037637;28;20164;-87
2022/04/29 03:09:03;;;;;;;10.67;7.10;;;;;;;12.50;68.25;95354.44;5017745;28;20736;-87
2022/04/29 03:11:29;;;;;;;12.57;7.67;;;;;;;12.07;68.15;95295.13;5033829;28;20184;-88
2022/04/29 03:13:54;;;;;;;16.47;8.00;;;;;;;12.45;68.90;95361.16;5033883;28;20192;-88
2022/04/29 03:16:20;;;;;;;11.13;7.23;;;;;;;12.13;68.98;95308.50;5034098;28;20634;-87
2022/04/29 03:18:45;;;;;;;15.83;7.27;;;;;;;11.93;68.70;95284.84;5024096;28;20237;-88
2022/04/29 03:21:11;;;;;;;10.93;7.47;;;;;;;12.17;69.35;95317.63;5022328;28;20168;-87
2022/04/29 03:23:37;;;;;;;15.07;9.37;;;;;;;11.91;69.59;95285.03;5018982;28;20195;-87
2022/04/29 03:26:04;;;;;;;13.63;8.33;;;;;;;12.23;69.33;95333.44;5001062;28;20169;-88
2022/04/29 03:28:30;;;;;;;12.93;7.90;;;;;;;12.05;69.43;95296.34;5025594;28;20672;-87
2022/04/29 03:30:56;;;;;;;14.67;7.23;;;;;;;12.39;69.23;95362.00;5016191;28;20188;-89
2022/04/29 03:33:22;;;;;;;13.27;8.30;;;;;;;12.35;69.53;95366.09;5013815;28;20219;-88
2022/04/29 03:35:52;;;;;;;14.03;8.53;;;;;;;12.27;70.39;95360.25;4999502;28;20651;-88
2022/04/29 03:38:18;;;;;;;15.20;8.23;;;;;;;12.23;70.48;95359.03;5022612;28;20230;-89
2022/04/29 03:40:44;;;;;;;11.57;8.30;;;;;;;12.01;70.68;95321.56;5003595;28;20604;-89
2022/04/29 03:43:12;;;;;;;13.17;8.47;;;;;;;11.92;70.20;95306.97;5004413;28;20634;-88
2022/04/29 03:45:38;;;;;;;11.03;7.13;;;;;;;12.30;70.16;95373.81;5028388;28;20172;-86
2022/04/29 03:48:04;;;;;;;17.60;9.83;;;;;;;11.97;70.65;95321.13;5023357;28;20662;-88
2022/04/29 03:50:29;;;;;;;20.60;11.87;;;;;;;12.15;70.28;95346.88;5020446;28;20164;-90
2022/04/29 03:53:01;;;;;;;15.43;10.23;;;;;;;12.37;70.81;95371.13;5026504;28;20187;-91
2022/04/29 03:55:32;;;;;;;13.27;7.90;;;;;;;12.33;70.83;95377.88;5028962;28;20179;-89
2022/04/29 03:57:58;;;;;;;13.37;8.67;;;;;;;12.31;70.32;95378.06;5024829;28;20698;-89
2022/04/29 04:00:31;;;;;;;14.37;8.53;;;;;;;12.06;70.76;95345.47;5005066;28;20207;-89
2022/04/29 04:02:57;;;;;;;15.00;7.50;;;;;;;12.01;71.54;95321.56;5011417;28;20180;-90
2022/04/29 04:05:23;;;;;;;11.93;7.17;;;;;;;11.91;71.15;95307.97;5013755;28;20688;-90
2022/04/29 04:07:49;;;;;;;14.47;8.20;;;;;;;12.00;71.22;95330.47;5001637;28;20184;-91
2022/04/29 04:10:14;;;;;;;12.47;7.63;;;;;;;11.95;71.76;95325.00;5015099;28;20227;-91
2022/04/29 04:12:54;;;;;;;13.67;8.40;;;;;;;12.38;71.83;95386.78;5017153;28;20183;-90
2022/04/29 04:15:23;;;;;;;15.10;9.10;;;;;;;11.45;71.31;95258.75;5024346;28;20271;-91
2022/04/29 04:17:49;;;;;;;11.20;7.60;;;;;;;11.21;71.73;95251.50;5024579;28;20208;-89
2022/04/29 04:20:16;;;;;;;14.30;8.23;;;;;;;11.75;72.40;95340.06;5021380;28;20260;-90
2022/04/29 04:22:41;;;;;;;10.13;6.97;;;;;;;11.75;73.06;95353.25;5003833;28;20203;-90
2022/04/29 04:25:09;;;;;;;15.53;9.83;;;;;;;11.49;73.17;95304.78;5033792;28;20171;-90
2022/04/29 04:27:35;;;;;;;14.23;7.73;;;;;;;11.78;73.30;95364.19;5003771;28;20570;-90
2022/04/29 04:30:02;;;;;;;15.70;9.17;;;;;;;11.93;74.20;95387.72;4998958;28;20191;-91
2022/04/29 04:32:28;;;;;;;15.80;8.37;;;;;;;11.59;74.49;95338.63;5018972;28;20176;-92
2022/04/29 04:34:54;;;;;;;12.63;7.67;;;;;;;11.99;74.87;95389.53;5005083;28;20209;-88
2022/04/29 04:37:21;;;;;;;13.87;8.37;;;;;;;11.81;73.91;95349.78;5020241;28;20165;-88
2022/04/29 04:39:48;;;;;;;26.13;15.97;;;;;;;12.11;74.57;95389.72;5012107;28;20180;-89
2022/04/29 04:42:14;;;;;;;16.43;10.07;;;;;;;11.96;74.61;95350.38;4998190;28;20222;-89
2022/04/29 04:44:39;;;;;;;11.83;8.20;;;;;;;12.33;74.38;95391.06;5000648;28;20163;-90
2022/04/29 04:47:05;;;;;;;13.70;7.80;;;;;;;12.16;74.14;95351.13;5004161;28;20586;-88
2022/04/29 04:49:31;;;;;;;14.03;7.87;;;;;;;12.32;73.52;95368.31;5020868;28;20177;-89
2022/04/29 04:51:57;;;;;;;13.87;8.17;;;;;;;12.41;73.17;95373.16;5004327;28;20160;-89
2022/04/29 04:54:23;;;;;;;13.43;7.60;;;;;;;12.13;73.00;95333.06;5009658;28;20206;-91
2022/04/29 04:56:48;;;;;;;15.33;8.63;;;;;;;12.60;73.03;95397.88;5010192;28;20637;-86
2022/04/29 04:59:14;;;;;;;12.47;8.13;;;;;;;12.28;73.49;95333.59;5021722;28;20675;-86
2022/04/29 05:01:39;;;;;;;18.07;8.80;;;;;;;12.37;73.74;95328.91;5023649;28;20160;-86
2022/04/29 05:04:05;;;;;;;14.30;10.00;;;;;;;12.51;73.27;95338.41;5026078;28;20234;-86
2022/04/29 05:06:30;;;;;;;15.23;9.13;;;;;;;12.62;73.94;95353.59;5017616;28;20164;-86
2022/04/29 05:08:56;;;;;;;140.73;31.37;;;;;;;12.80;73.88;95347.56;4998457;28;20722;-86
2022/04/29 05:11:21;;;;;;;105.07;24.90;;;;;;;12.93;72.57;95331.66;5026474;28;20172;-87
2022/04/29 05:13:46;;;;;;;133.90;22.10;;;;;;;13.57;72.34;95389.59;5019988;28;20694;-87
2022/04/29 05:16:12;;;;;;;131.30;21.37;;;;;;;13.33;71.30;95320.81;5012119;28;20160;-88
2022/04/29 05:18:37;;;;;;;107.77;23.83;;;;;;;13.55;70.15;95333.44;4998333;28;20728;-86
2022/04/29 05:21:03;;;;;;;115.30;18.50;;;;;;;13.66;69.69;95354.94;5025346;28;20173;-86
2022/04/29 05:23:29;;;;;;;106.57;23.03;;;;;;;14.13;69.35;95387.84;5025398;28;20179;-85
2022/04/29 05:25:54;;;;;;;61.23;12.33;;;;;;;14.00;68.26;95324.47;5022066;28;20641;-86
2022/04/29 05:28:20;;;;;;;131.47;25.73;;;;;;;14.57;68.14;95381.50;5025584;28;20203;-86
2022/04/29 05:30:45;;;;;;;103.67;19.30;;;;;;;14.92;66.18;95386.97;5017219;28;20211;-86
2022/04/29 05:33:11;;;;;;;115.87;16.13;;;;;;;15.01;65.22;95396.22;5015903;28;20176;-86
2022/04/29 05:35:39;;;;;;;16.70;10.87;;;;;;;14.74;66.04;95345.41;5016210;28;20157;-86
2022/04/29 05:38:04;;;;;;;14.87;8.87;;;;;;;14.78;65.33;95343.13;4998163;28;20176;-86
2022/04/29 05:43:14;;;;;;;22.07;10.60;;;;;;;14.86;64.99;95379.91;5024900;28;20179;-86
2022/04/29 05:45:40;;;;;;;12.57;7.83;;;;;;;14.56;66.01;95345.44;5026992;28;20168;-86
2022/04/29 05:48:05;;;;;;;13.00;7.40;;;;;;;14.69;65.65;95364.63;5003967;28;20226;-86
2022/04/29 05:50:31;;;;;;;18.40;9.33;;;;;;;14.67;65.20;95368.53;5021895;28;20198;-86
2022/04/29 05:52:57;;;;;;;14.03;8.10;;;;;;;14.94;65.34;95398.16;5023819;28;20260;-86
2022/04/29 05:55:22;;;;;;;11.07;7.30;;;;;;;14.60;65.97;95326.22;5023562;28;20192;-86
2022/04/29 05:57:48;;;;;;;10.87;7.47;;;;;;;15.06;65.27;95389.19;5017924;28;20184;-86
2022/04/29 06:00:15;;;;;;;17.23;8.47;;;;;;;15.08;65.21;95379.19;5024856;28;20720;-86
2022/04/29 06:02:41;;;;;;;11.80;7.37;;;;;;;14.96;65.72;95351.03;5002137;28;20268;-87
2022/04/29 06:05:07;;;;;;;15.90;6.37;;;;;;;15.31;64.01;95399.66;5002908;28;20168;-86
2022/04/29 06:07:32;;;;;;;84.33;18.03;;;;;;;15.14;63.77;95380.13;5026250;28;20187;-86
2022/04/29 06:09:58;;;;;;;66.90;19.83;;;;;;;15.07;64.53;95366.16;5025337;28;20216;-87
2022/04/29 06:12:23;;;;;;;67.83;17.50;;;;;;;15.38;64.59;95403.03;5031197;28;20240;-86
2022/04/29 06:14:49;;;;;;;67.10;19.70;;;;;;;15.25;62.90;95384.66;5025148;28;20200;-86
2022/04/29 06:17:15;;;;;;;87.63;18.30;;;;;;;15.47;63.38;95417.59;5026260;28;20168;-87
2022/04/29 06:19:40;;;;;;;65.43;17.77;;;;;;;15.51;62.98;95417.94;5003738;28;20262;-87
2022/04/29 06:22:06;;;;;;;61.60;17.63;;;;;;;15.15;62.51;95371.13;5009629;28;20171;-87
2022/04/29 06:24:33;;;;;;;89.40;19.77;;;;;;;15.15;63.12;95376.44;5015558;28;20175;-87
2022/04/29 06:26:58;;;;;;;13.70;8.20;;;;;;;15.33;63.00;95420.66;5024393;28;20180;-87
2022/04/29 06:29:24;;;;;;;91.73;21.97;;;;;;;15.00;64.27;95366.25;5005620;28;20184;-86
2022/04/29 06:31:50;;;;;;;14.07;9.63;;;;;;;15.17;64.23;95379.66;5005654;28;20203;-87
2022/04/29 06:34:15;;;;;;;49.03;13.73;;;;;;;15.49;65.08;95390.81;5022902;28;20196;-86
2022/04/29 06:36:41;;;;;;;20.33;10.80;;;;;;;15.57;62.90;95363.97;5024955;28;20259;-90
2022/04/29 06:39:06;;;;;;;13.03;8.03;;;;;;;16.32;64.26;95403.16;5013598;28;20168;-90
2022/04/29 06:41:32;;;;;;;10.20;7.03;;;;;;;16.52;60.04;95377.78;5005638;28;20187;-85
2022/04/29 06:43:58;;;;;;;10.87;7.77;;;;;;;17.17;60.78;95428.06;5011035;28;20707;-87
2022/04/29 06:46:25;;;;;;;9.47;7.27;;;;;;;17.32;58.59;95391.06;5005761;28;20175;-86
2022/04/29 06:48:53;;;;;;;11.85;7.55;;;;;;;17.25;56.00;95360.31;5001664;28;20223;-87
2022/04/29 06:51:18;;;;;;;10.50;6.97;;;;;;;17.56;55.80;95422.88;5035611;28;20177;-86
2022/04/29 06:53:44;;;;;;;9.40;6.43;;;;;;;17.31;56.94;95384.13;5027662;28;20254;-86
2022/04/29 06:56:09;;;;;;;9.07;6.72;;;;;;;17.77;58.06;95427.53;5030700;28;20251;-87
2022/04/29 06:58:35;;;;;;;10.95;7.00;;;;;;;18.00;57.94;95427.38;5022839;28;20172;-87
2022/04/29 07:01:00;;;;;;;13.30;7.35;;;;;;;18.00;56.80;95394.59;5005786;28;20226;-86
2022/04/29 07:03:26;;;;;;;10.23;7.00;;;;;;;18.15;54.99;95418.84;5025509;28;20263;-85
2022/04/29 07:05:52;;;;;;;11.95;7.65;;;;;;;18.12;55.55;95421.97;5025672;28;20245;-84
2022/04/29 07:08:20;;;;;;;10.40;7.28;;;;;;;18.01;54.91;95422.84;5026192;28;20176;-83
2022/04/29 07:10:46;;;;;;;9.98;7.57;;;;;;;17.91;55.54;95396.06;5021421;28;20219;-85
2022/04/29 07:13:12;;;;;;;9.95;6.55;;;;;;;18.04;54.71;95423.19;5030037;28;20179;-85
2022/04/29 07:15:43;;;;;;;9.20;6.57;;;;;;;18.03;54.88;95415.44;5027222;28;20172;-85
2022/04/29 07:18:11;;;;;;;10.00;6.72;;;;;;;17.85;56.73;95418.34;5019102;28;20202;-84
2022/04/29 07:20:37;;;;;;;12.82;6.88;;;;;;;17.80;55.80;95375.66;5019320;28;20187;-84
2022/04/29 07:23:03;;;;;;;9.70;6.63;;;;;;;17.98;55.58;95364.75;5024198;28;20575;-84
2022/04/29 07:25:28;;;;;;;10.40;6.10;;;;;;;18.37;53.26;95414.34;5029807;28;20164;-83
2022/04/29 07:27:54;;;;;;;9.27;6.43;;;;;;;18.24;52.26;95404.03;5021931;28;20237;-86
2022/04/29 07:30:19;;;;;;;8.88;5.75;;;;;;;18.38;53.79;95415.97;5023468;28;20176;-86
2022/04/29 07:32:45;;;;;;;9.25;6.43;;;;;;;18.42;52.71;95408.28;5024402;28;20186;-84
2022/04/29 07:43:44;;;;;;;29.80;10.15;;;;;;;18.74;52.29;95387.94;5001605;28;20263;-88
2022/04/29 07:46:10;;;;;;;23.52;8.95;;;;;;;18.47;52.48;95379.81;5007103;28;20278;-86
2022/04/29 07:48:36;;;;;;;26.75;7.40;;;;;;;18.57;52.71;95397.84;5023837;28;20187;-90
2022/04/29 07:51:01;;;;;;;78.70;15.82;;;;;;;18.40;51.25;95373.88;5021399;28;20164;-78
2022/04/29 07:53:27;;;;;;;65.25;17.30;;;;;;;18.47;50.42;95379.00;5022189;28;20180;-84
2022/04/29 07:55:52;;;;;;;22.90;8.32;;;;;;;18.68;50.77;95414.81;5024870;28;20179;-83
2022/04/29 07:58:18;;;;;;;38.60;10.88;;;;;;;18.48;50.19;95381.44;5027952;28;20181;-85
2022/04/29 08:00:44;;;;;;;19.92;7.60;;;;;;;18.50;50.81;95412.38;5024457;28;20743;-84
2022/04/29 08:03:09;;;;;;;17.58;8.13;;;;;;;18.19;51.33;95387.97;5025438;28;20552;-85
2022/04/29 08:05:35;;;;;;;98.25;19.05;;;;;;;18.08;51.24;95402.19;5027708;28;20179;-84
2022/04/29 08:08:00;;;;;;;303.90;55.58;;;;;;;17.86;52.19;95401.31;5028761;28;20565;-83
2022/04/29 08:10:29;;;;;;;483.10;104.97;;;;;;;17.52;53.50;95387.94;4999580;28;20736;-84
2022/04/29 08:12:57;;;;;;;29.75;10.52;;;;;;;17.31;53.66;95378.00;5026415;28;20663;-79
2022/04/29 08:15:25;;;;;;;14.65;9.77;;;;;;;17.40;53.87;95397.84;5022735;28;20230;-84
2022/04/29 08:17:54;;;;;;;16.05;8.32;;;;;;;17.28;52.78;95403.25;5026719;28;20207;-83
2022/04/29 08:20:20;;;;;;;8.27;6.35;;;;;;;17.11;53.69;95369.66;5025260;28;20585;-82
2022/04/29 08:22:45;;;;;;;10.68;5.90;;;;;;;17.13;53.83;95351.59;5022999;28;20670;-81
2022/04/29 08:25:11;;;;;;;8.45;5.57;;;;;;;17.41;54.00;95385.34;5026400;28;21140;-83
2022/04/29 08:27:36;;;;;;;8.80;5.57;;;;;;;17.42;54.68;95379.78;5027575;28;20180;-81
2022/04/29 08:30:06;;;;;;;9.82;5.72;;;;;;;17.33;52.55;95370.59;5022082;28;20191;-84
2022/04/29 08:32:43;;;;;;;12.15;5.65;;;;;;;17.35;52.46;95395.91;5019024;28;20954;-81
2022/04/29 08:35:10;;;;;;;8.55;5.35;;;;;;;17.20;52.49;95395.66;5025107;28;20196;-82
2022/04/29 08:37:43;;;;;;;11.18;5.75;;;;;;;17.17;52.33;95390.00;5030146;28;20709;-82
2022/04/29 08:40:11;;;;;;;60.97;13.63;;;;;;;17.17;52.33;95397.97;5028634;28;20766;-82
2022/04/29 08:42:41;;;;;;;8.97;6.20;;;;;;;17.21;52.55;95391.91;5024476;28;20766;-81
2022/04/29 08:45:08;;;;;;;49.55;11.98;;;;;;;17.23;51.80;95397.00;5009330;28;20184;-82
2022/04/29 08:47:39;;;;;;;10.63;5.47;;;;;;;17.28;51.71;95391.78;5024671;28;20261;-82
2022/04/29 08:50:08;;;;;;;7.07;4.90;;;;;;;17.21;50.92;95353.88;5022123;28;20178;-82
2022/04/29 08:52:35;;;;;;;12.10;6.03;;;;;;;17.44;50.19;95380.38;5024719;28;20176;-81
2022/04/29 09:00:33;;;;;;;6.53;4.43;;;;;;;17.64;49.75;95379.94;5025556;28;20195;-83
2022/04/29 09:03:00;;;;;;;38.58;22.13;;;;;;;17.67;49.51;95364.25;5026895;28;20175;-82
2022/04/29 09:05:26;;;;;;;9.23;5.53;;;;;;;17.70;49.64;95339.00;5020005;28;20845;-82
2022/04/29 09:07:53;;;;;;;8.30;5.03;;;;;;;18.03;49.89;95372.81;5005865;28;20258;-84
2022/04/29 09:10:19;;;;;;;7.35;5.45;;;;;;;18.08;48.57;95349.69;5015847;28;20646;-83
2022/04/29 09:12:45;;;;;;;5.60;4.60;;;;;;;18.31;46.99;95374.53;5016343;28;20199;-83
2022/04/29 09:15:12;;;;;;;6.22;4.65;;;;;;;18.34;46.83;95374.84;5028604;28;20274;-82
2022/04/29 09:17:39;;;;;;;7.50;4.93;;;;;;;18.38;46.61;95365.31;5021774;28;20637;-82
2022/04/29 09:20:16;;;;;;;6.25;4.55;;;;;;;18.29;47.23;95340.13;5024810;28;20667;-82
2022/04/29 09:22:47;;;;;;;7.35;5.18;;;;;;;18.29;48.11;95328.66;5022065;28;20351;-83
2022/04/29 09:25:13;;;;;;;8.77;4.50;;;;;;;18.58;47.13;95369.31;5024086;28;20179;-83
2022/04/29 09:27:57;;;;;;;6.07;4.70;;;;;;;18.49;46.87;95352.91;5024667;28;20176;-82
2022/04/29 09:30:40;;;;;;;6.07;4.40;;;;;;;18.59;46.78;95366.41;5025900;28;20717;-85
2022/04/29 09:33:27;;;;;;;7.70;4.80;;;;;;;18.58;47.16;95364.00;5009146;28;20180;-84
2022/04/29 09:35:54;;;;;;;6.45;4.38;;;;;;;18.58;46.69;95370.13;5007251;28;20667;-85
2022/04/29 09:41:06;;;;;;;6.32;4.80;;;;;;;18.33;45.56;95365.25;5017287;28;20682;-83
2022/04/29 09:43:33;;;;;;;5.80;4.45;;;;;;;18.13;45.50;95367.63;5019269;28;20263;-85
2022/04/29 09:46:22;;;;;;;5.70;4.32;;;;;;;18.03;47.13;95349.63;5022749;28;20182;-84
2022/04/29 09:48:58;;;;;;;6.25;4.70;;;;;;;18.18;46.93;95361.53;5019954;28;20179;-83
2022/04/29 09:51:51;;;;;;;7.63;5.10;;;;;;;18.15;45.32;95367.38;5019417;28;20676;-84
2022/04/29 09:54:21;;;;;;;7.82;4.80;;;;;;;18.14;47.87;95353.25;5006680;28;20289;-81
2022/04/29 09:57:03;;;;;;;6.43;4.40;;;;;;;18.27;45.18;95360.06;5027426;28;20230;-81
2022/04/29 09:59:43;;;;;;;7.55;4.28;;;;;;;18.23;46.67;95362.44;5021175;28;20179;-83
2022/04/29 10:02:15;;;;;;;7.93;4.20;;;;;;;18.23;45.85;95359.78;5023165;28;20259;-83
2022/04/29 10:04:46;;;;;;;6.97;5.20;;;;;;;18.37;46.90;95352.22;5025349;28;20649;-82
2022/04/29 10:07:13;;;;;;;6.72;4.50;;;;;;;18.47;46.13;95344.34;5024687;28;20186;-83
2022/04/29 10:09:44;;;;;;;8.00;4.88;;;;;;;18.68;46.42;95348.13;5025153;28;20219;-81
2022/04/29 10:12:15;;;;;;;7.03;5.13;;;;;;;18.53;46.55;95305.22;5026608;28;20172;-83
2022/04/29 10:14:43;;;;;;;4.20;3.78;;;;;;;18.88;44.20;95345.66;5027320;28;20184;-83
2022/04/29 10:23:06;;;;;;;7.22;4.60;;;;;;;18.49;46.41;95286.25;5012072;28;20626;-83
2022/04/29 10:25:33;;;;;;;7.82;4.57;;;;;;;19.00;45.04;95335.66;5016471;28;20179;-83
2022/04/29 10:28:02;;;;;;;7.75;5.35;;;;;;;18.89;45.30;95320.59;5014446;28;20211;-83
2022/04/29 10:30:30;;;;;;;8.55;4.43;;;;;;;19.05;44.83;95333.03;5010322;28;20218;-83
2022/04/29 10:33:08;;;;;;;7.22;5.10;;;;;;;19.09;45.79;95318.16;5014877;28;20226;-83
2022/04/29 10:35:39;;;;;;;7.35;5.90;;;;;;;19.29;44.53;95330.84;5017051;28;20677;-83
2022/04/29 10:38:49;;;;;;;7.68;4.95;;;;;;;19.28;44.46;95334.59;5010990;28;20179;-83
2022/04/29 10:41:21;;;;;;;6.82;5.32;;;;;;;19.21;45.21;95320.63;4979211;28;20197;-83
2022/04/29 10:43:49;;;;;;;7.80;5.72;;;;;;;19.37;45.76;95334.94;5024558;28;20168;-83
2022/04/29 10:46:27;;;;;;;5.32;4.75;;;;;;;19.43;43.64;95333.94;5016705;28;20274;-83
2022/04/29 10:48:54;;;;;;;8.13;5.53;;;;;;;19.51;44.23;95320.13;4995960;28;20564;-83
2022/04/29 10:51:21;;;;;;;8.75;4.95;;;;;;;19.73;45.84;95334.19;5021734;28;20187;-83
2022/04/29 10:53:49;;;;;;;6.72;5.07;;;;;;;19.85;43.84;95302.75;5022085;28;20234;-83
2022/04/29 10:56:30;;;;;;;7.45;5.60;;;;;;;20.02;44.67;95321.31;5025664;28;20195;-83
2022/04/29 10:59:05;;;;;;;9.63;4.72;;;;;;;20.05;44.57;95322.66;5022910;28;20198;-83
2022/04/29 11:01:35;;;;;;;6.72;5.07;;;;;;;19.86;44.22;95303.56;5005275;28;20172;-83
2022/04/29 11:04:01;;;;;;;6.40;5.15;;;;;;;19.74;43.46;95308.28;5027155;28;21708;-83
2022/04/29 11:06:41;;;;;;;6.97;5.07;;;;;;;19.61;44.90;95306.06;5025419;28;21000;-83
2022/04/29 11:09:45;;;;;;;6.93;5.53;;;;;;;19.44;44.72;95287.47;5018378;28;20593;-83
2022/04/29 11:12:39;;;;;;;8.68;5.38;;;;;;;19.58;44.36;95292.16;5018506;28;20631;-83
2022/04/29 11:15:05;;;;;;;6.18;4.93;;;;;;;19.65;42.64;95289.25;5019000;28;20204;-83
2022/04/29 11:17:35;;;;;;;6.03;4.85;;;;;;;19.64;43.58;95292.97;5026686;28;20176;-84
2022/04/29 11:20:13;;;;;;;6.55;4.60;;;;;;;19.51;43.27;95288.09;5015911;28;20187;-83
2022/04/29 11:25:24;;;;;;;11.73;5.30;;;;;;;19.41;44.22;95282.63;5014376;28;20243;-83
2022/04/29 11:27:51;;;;;;;7.95;5.68;;;;;;;19.52;44.29;95279.03;5020761;28;20179;-82
2022/04/29 11:30:17;;;;;;;7.88;4.80;;;;;;;19.45;42.17;95273.88;5019020;28;20680;-83
2022/04/29 11:32:43;;;;;;;6.30;5.00;;;;;;;19.43;44.88;95265.31;5012439;28;20188;-83
2022/04/29 11:35:08;;;;;;;8.48;6.00;;;;;;;19.24;44.28;95210.69;5016419;28;20266;-83
2022/04/29 11:37:35;;;;;;;8.43;4.70;;;;;;;19.48;43.27;95251.19;5018231;28;20223;-83
2022/04/29 11:40:06;;;;;;;8.60;4.60;;;;;;;19.10;41.02;95249.56;5014413;28;20618;-83
2022/04/29 11:42:31;;;;;;;6.55;4.93;;;;;;;19.28;43.65;95267.06;5020246;28;20172;-83
2022/04/29 11:45:10;;;;;;;6.45;4.65;;;;;;;19.04;43.28;95262.03;5023688;28;20222;-85
2022/04/29 11:47:36;;;;;;;14.75;5.65;;;;;;;18.73;43.76;95266.28;5027261;28;20168;-84
2022/04/29 11:50:03;;;;;;;14.73;7.53;;;;;;;18.80;45.52;95260.75;5017249;28;20611;-82
2022/04/29 11:52:34;;;;;;;5.93;4.35;;;;;;;18.88;43.57;95262.16;5013081;28;20168;-83
2022/04/29 11:55:01;;;;;;;8.25;4.82;;;;;;;18.87;43.39;95256.00;5026092;28;20192;-83
2022/04/29 11:57:29;;;;;;;7.85;4.40;;;;;;;18.53;43.42;95258.03;5006511;28;20184;-81
2022/04/29 11:59:55;;;;;;;7.75;4.88;;;;;;;18.65;44.86;95252.59;5019560;28;20171;-81